createdAt,value
2023-04-16T00:00:06.341Z,97.3956
2023-04-16T00:01:07.351Z,97.4361
2023-04-16T00:02:08.507Z,97.5645
2023-04-16T00:03:09.569Z,97.2294
2023-04-16T00:04:10.597Z,97.2679
2023-04-16T00:05:11.525Z,97.3123
2023-04-16T00:06:12.511Z,97.4469
2023-04-16T00:07:13.566Z,97.2905
2023-04-16T00:08:14.645Z,97.2217
2023-04-16T00:09:15.645Z,97.5133
2023-04-16T00:10:16.729Z,97.2807
2023-04-16T00:11:17.779Z,97.0704
2023-04-16T00:12:18.764Z,97.1283
2023-04-16T00:13:19.801Z,97.0351
2023-04-16T00:14:20.847Z,97.1311
2023-04-16T00:15:22.010Z,97.0557
2023-04-16T00:16:23.032Z,97.2289
2023-04-16T00:17:24.046Z,97.3563
2023-04-16T00:18:25.050Z,97.3663
2023-04-16T00:19:26.100Z,97.3009
2023-04-16T00:20:27.143Z,97.3884
2023-04-16T00:21:28.191Z,97.4199
2023-04-16T00:22:29.210Z,97.3050
2023-04-16T00:23:30.222Z,97.3258
2023-04-16T00:24:31.268Z,97.2452
2023-04-16T00:25:32.352Z,97.1758
2023-04-16T00:26:33.346Z,97.1758
2023-04-16T00:27:34.400Z,97.2562
2023-04-16T00:28:35.402Z,97.2553
2023-04-16T00:29:36.404Z,97.2317
2023-04-16T00:30:37.471Z,97.2752
2023-04-16T00:31:38.451Z,97.1462
2023-04-16T00:32:39.540Z,97.0916
2023-04-16T00:33:40.512Z,97.0504
2023-04-16T00:34:41.665Z,97.0531
2023-04-16T00:35:42.645Z,97.2191
2023-04-16T00:36:43.648Z,97.3056
2023-04-16T00:37:44.694Z,97.3179
2023-04-16T00:38:45.681Z,97.3114
2023-04-16T00:39:46.787Z,97.2136
2023-04-16T00:40:47.800Z,97.3941
2023-04-16T00:41:48.805Z,97.3794
2023-04-16T00:42:49.833Z,97.2983
2023-04-16T00:43:50.886Z,97.3875
2023-04-16T00:44:51.925Z,97.4891
2023-04-16T00:45:53.072Z,97.5521
2023-04-16T00:46:54.016Z,97.2382
2023-04-16T00:47:55.142Z,97.1588
2023-04-16T00:48:56.060Z,97.4116
2023-04-16T00:49:57.125Z,97.5255
2023-04-16T00:50:58.183Z,97.5591
2023-04-16T00:51:59.224Z,97.5280
2023-04-16T00:53:00.235Z,97.4000
2023-04-16T00:54:01.266Z,97.3284
2023-04-16T00:55:02.306Z,97.3290
2023-04-16T00:56:03.380Z,97.3176
2023-04-16T00:57:04.384Z,97.2830
2023-04-16T00:58:05.390Z,97.3352
2023-04-16T00:59:06.426Z,97.3407
2023-04-16T01:00:07.462Z,97.4678
2023-04-16T01:01:08.709Z,97.5535
2023-04-16T01:02:09.646Z,97.6546
2023-04-16T01:03:10.756Z,97.6414
2023-04-16T01:04:11.846Z,97.7256
2023-04-16T01:05:12.728Z,97.6356
2023-04-16T01:06:13.762Z,97.4280
2023-04-16T01:07:14.764Z,97.4199
2023-04-16T01:08:15.825Z,97.3688
2023-04-16T01:09:16.861Z,97.4287
2023-04-16T01:10:17.934Z,97.4886
2023-04-16T01:11:18.999Z,97.3725
2023-04-16T01:12:19.985Z,97.3828
2023-04-16T01:13:21.009Z,97.5756
2023-04-16T01:14:22.047Z,97.7432
2023-04-16T01:15:23.104Z,97.6670
2023-04-16T01:16:24.288Z,97.4183
2023-04-16T01:17:25.174Z,97.3921
2023-04-16T01:18:26.264Z,97.7658
2023-04-16T01:19:27.265Z,97.7634
2023-04-16T01:20:28.287Z,97.7683
2023-04-16T01:21:29.328Z,97.7273
2023-04-16T01:22:30.351Z,97.5201
2023-04-16T01:23:31.385Z,97.6403
2023-04-16T01:24:32.975Z,97.5454
2023-04-16T01:25:33.386Z,97.6272
2023-04-16T01:26:34.405Z,97.5824
2023-04-16T01:27:35.437Z,97.6190
2023-04-16T01:28:36.489Z,97.5269
2023-04-16T01:29:37.508Z,97.6346
2023-04-16T01:30:38.529Z,97.6283
2023-04-16T01:31:39.656Z,97.5449
2023-04-16T01:32:40.630Z,97.5164
2023-04-16T01:33:41.633Z,97.5270
2023-04-16T01:34:42.688Z,97.4515
2023-04-16T01:35:43.725Z,97.4166
2023-04-16T01:36:44.793Z,97.5010
2023-04-16T01:37:45.809Z,97.4492
2023-04-16T01:38:46.846Z,97.2837
2023-04-16T01:39:47.876Z,97.2243
2023-04-16T01:40:48.920Z,97.0732
2023-04-16T01:41:49.967Z,97.2536
2023-04-16T01:42:50.980Z,97.2374
2023-04-16T01:43:51.987Z,97.3317
2023-04-16T01:44:53.008Z,97.5534
2023-04-16T01:45:54.060Z,97.5108
2023-04-16T01:46:55.153Z,97.2547
2023-04-16T01:47:56.149Z,97.1682
2023-04-16T01:48:57.181Z,97.1799
2023-04-16T01:49:58.276Z,97.3671
2023-04-16T01:50:59.234Z,97.6384
2023-04-16T01:52:00.298Z,97.6321
2023-04-16T01:53:01.328Z,97.6622
2023-04-16T01:54:02.347Z,97.5958
2023-04-16T01:55:03.383Z,97.6248
2023-04-16T01:56:04.425Z,97.7226
2023-04-16T01:57:05.520Z,97.6236
2023-04-16T01:58:06.605Z,97.3966
2023-04-16T01:59:08.044Z,97.2786
2023-04-16T02:00:08.641Z,97.5476
2023-04-16T02:01:09.750Z,97.6664
2023-04-16T02:02:10.758Z,97.4772
2023-04-16T02:03:11.935Z,97.2807
2023-04-16T02:04:12.822Z,97.3203
2023-04-16T02:05:13.811Z,97.3997
2023-04-16T02:06:14.851Z,97.3040
2023-04-16T02:07:15.896Z,97.4400
2023-04-16T02:08:17.063Z,97.5617
2023-04-16T02:09:17.958Z,97.7333
2023-04-16T02:10:19.005Z,97.7899
2023-04-16T02:11:20.024Z,97.9024
2023-04-16T02:12:21.006Z,97.5773
2023-04-16T02:13:22.040Z,97.4044
2023-04-16T02:14:23.052Z,97.2926
2023-04-16T02:15:24.075Z,97.4401
2023-04-16T02:16:25.153Z,97.5915
2023-04-16T02:17:26.172Z,97.4460
2023-04-16T02:18:27.206Z,97.6391
2023-04-16T02:19:28.202Z,97.7861
2023-04-16T02:20:29.263Z,97.8439
2023-04-16T02:21:30.281Z,97.8127
2023-04-16T02:22:31.323Z,97.6851
2023-04-16T02:23:32.384Z,97.4474
2023-04-16T02:24:33.379Z,97.4621
2023-04-16T02:25:34.423Z,97.5980
2023-04-16T02:26:35.441Z,97.6398
2023-04-16T02:27:36.484Z,97.6885
2023-04-16T02:28:37.561Z,97.5236
2023-04-16T02:29:38.528Z,97.6867
2023-04-16T02:30:39.609Z,97.7535
2023-04-16T02:31:40.680Z,97.7643
2023-04-16T02:32:41.713Z,97.6631
2023-04-16T02:33:42.719Z,97.8221
2023-04-16T02:34:43.739Z,97.8374
2023-04-16T02:35:44.782Z,97.8481
2023-04-16T02:36:45.785Z,97.8271
2023-04-16T02:37:46.855Z,97.6014
2023-04-16T02:38:47.928Z,97.5008
2023-04-16T02:39:48.923Z,97.7364
2023-04-16T02:40:49.947Z,97.6766
2023-04-16T02:41:51.008Z,97.7553
2023-04-16T02:42:52.029Z,97.8392
2023-04-16T02:43:53.101Z,97.6287
2023-04-16T02:44:54.100Z,97.7278
2023-04-16T02:45:55.236Z,97.9002
2023-04-16T02:46:56.302Z,97.8122
2023-04-16T02:47:57.397Z,97.8191
2023-04-16T02:48:58.367Z,97.9018
2023-04-16T02:49:59.350Z,97.8858
2023-04-16T02:51:00.394Z,97.9112
2023-04-16T02:52:01.449Z,97.8646
2023-04-16T02:53:02.464Z,97.8934
2023-04-16T02:54:03.574Z,97.8798
2023-04-16T02:55:04.623Z,97.8168
2023-04-16T02:56:05.593Z,97.7965
2023-04-16T02:57:06.646Z,97.9553
2023-04-16T02:58:07.657Z,98.0284
2023-04-16T02:59:08.937Z,98.1526
2023-04-16T03:00:09.769Z,98.0718
2023-04-16T03:01:10.850Z,98.0174
2023-04-16T03:02:11.885Z,98.0775
2023-04-16T03:03:12.945Z,98.2449
2023-04-16T03:04:13.945Z,98.3044
2023-04-16T03:05:14.933Z,98.1841
2023-04-16T03:06:16.031Z,98.2199
2023-04-16T03:07:17.069Z,98.2727
2023-04-16T03:08:18.051Z,98.0937
2023-04-16T03:09:19.091Z,98.0359
2023-04-16T03:10:20.134Z,98.2712
2023-04-16T03:11:21.191Z,98.3608
2023-04-16T03:12:22.174Z,98.1943
2023-04-16T03:13:23.234Z,98.2086
2023-04-16T03:14:24.311Z,98.3094
2023-04-16T03:15:25.323Z,98.2439
2023-04-16T03:16:26.353Z,98.2288
2023-04-16T03:17:27.429Z,98.3614
2023-04-16T03:18:28.396Z,98.3006
2023-04-16T03:19:29.475Z,98.2645
2023-04-16T03:20:30.492Z,98.2160
2023-04-16T03:21:31.552Z,98.3453
2023-04-16T03:22:32.582Z,98.3647
2023-04-16T03:23:33.625Z,98.3863
2023-04-16T03:24:34.689Z,98.4179
2023-04-16T03:25:35.730Z,98.2888
2023-04-16T03:26:36.722Z,98.3604
2023-04-16T03:27:37.774Z,98.3203
2023-04-16T03:28:38.818Z,98.2359
2023-04-16T03:29:39.883Z,98.0914
2023-04-16T03:30:40.902Z,98.1424
2023-04-16T03:31:41.989Z,98.2211
2023-04-16T03:32:43.063Z,98.2593
2023-04-16T03:33:43.998Z,98.3221
2023-04-16T03:34:45.089Z,98.3368
2023-04-16T03:35:46.125Z,98.2984
2023-04-16T03:36:47.298Z,98.3533
2023-04-16T03:37:48.156Z,98.3942
2023-04-16T03:38:49.206Z,98.2188
2023-04-16T03:39:50.310Z,98.2460
2023-04-16T03:40:51.304Z,98.3651
2023-04-16T03:41:52.382Z,98.4081
2023-04-16T03:42:53.436Z,98.3516
2023-04-16T03:43:54.623Z,98.2012
2023-04-16T03:44:55.502Z,98.2131
2023-04-16T03:45:56.577Z,98.4260
2023-04-16T03:46:57.659Z,98.2823
2023-04-16T03:47:58.656Z,98.3070
2023-04-16T03:48:59.694Z,98.3210
2023-04-16T03:50:00.732Z,98.3714
2023-04-16T03:51:01.812Z,98.2601
2023-04-16T03:52:02.852Z,98.2678
2023-04-16T03:53:03.831Z,98.2241
2023-04-16T03:54:04.883Z,98.1053
2023-04-16T03:55:05.831Z,98.1066
2023-04-16T03:56:06.900Z,98.2469
2023-04-16T03:57:07.895Z,98.4100
2023-04-16T03:58:08.952Z,98.4357
2023-04-16T03:59:10.139Z,98.2203
2023-04-16T04:00:11.038Z,98.3038
2023-04-16T04:01:12.082Z,98.2325
2023-04-16T04:02:13.263Z,98.4604
2023-04-16T04:03:14.310Z,98.5516
2023-04-16T04:04:15.234Z,98.3683
2023-04-16T04:05:16.217Z,98.4248
2023-04-16T04:06:17.294Z,98.4577
2023-04-16T04:07:18.311Z,98.4526
2023-04-16T04:08:19.313Z,98.4548
2023-04-16T04:09:20.396Z,98.4233
2023-04-16T04:10:21.410Z,98.4998
2023-04-16T04:11:22.478Z,98.4194
2023-04-16T04:12:23.481Z,98.5416
2023-04-16T04:13:24.526Z,98.4876
2023-04-16T04:14:25.556Z,98.4073
2023-04-16T04:15:26.616Z,98.4551
2023-04-16T04:16:27.699Z,98.4117
2023-04-16T04:17:28.667Z,98.3913
2023-04-16T04:18:29.713Z,98.4024
2023-04-16T04:19:30.777Z,98.4949
2023-04-16T04:20:31.807Z,98.6219
2023-04-16T04:21:32.896Z,98.6127
2023-04-16T04:22:33.877Z,98.4090
2023-04-16T04:23:34.924Z,98.3169
2023-04-16T04:24:35.971Z,98.3572
2023-04-16T04:25:37.002Z,98.5435
2023-04-16T04:26:38.183Z,98.6384
2023-04-16T04:27:39.060Z,98.6056
2023-04-16T04:28:40.175Z,98.4357
2023-04-16T04:29:41.204Z,98.3226
2023-04-16T04:30:42.382Z,98.1946
2023-04-16T04:31:43.515Z,98.3105
2023-04-16T04:32:44.371Z,98.4705
2023-04-16T04:33:45.365Z,98.2835
2023-04-16T04:34:46.415Z,98.3573
2023-04-16T04:35:47.544Z,98.5222
2023-04-16T04:36:48.522Z,98.6212
2023-04-16T04:37:49.557Z,98.5419
2023-04-16T04:38:50.566Z,98.4082
2023-04-16T04:39:51.609Z,98.3525
2023-04-16T04:40:52.690Z,98.3987
2023-04-16T04:41:53.703Z,98.4208
2023-04-16T04:42:54.733Z,98.3591
2023-04-16T04:43:55.791Z,98.5727
2023-04-16T04:44:56.822Z,98.4848
2023-04-16T04:45:57.881Z,98.4356
2023-04-16T04:46:58.923Z,98.4360
2023-04-16T04:47:59.951Z,98.3490
2023-04-16T04:49:00.966Z,98.3595
2023-04-16T04:50:01.988Z,98.3850
2023-04-16T04:51:05.032Z,98.5627
2023-04-16T04:52:04.063Z,98.4903
2023-04-16T04:53:05.042Z,98.5199
2023-04-16T04:54:06.105Z,98.6454
2023-04-16T04:55:07.162Z,98.5781
2023-04-16T04:56:12.796Z,98.6098
2023-04-16T04:57:09.286Z,98.7441
2023-04-16T04:58:10.269Z,98.7140
2023-04-16T04:59:11.450Z,98.6545
2023-04-16T05:00:12.326Z,98.6153
2023-04-16T05:01:13.367Z,98.5885
2023-04-16T05:02:14.532Z,98.6356
2023-04-16T05:03:15.489Z,98.6300
2023-04-16T05:04:16.598Z,98.6227
2023-04-16T05:05:17.586Z,98.6509
2023-04-16T05:06:18.567Z,98.7449
2023-04-16T05:07:19.589Z,98.7625
2023-04-16T05:08:20.639Z,98.8407
2023-04-16T05:09:21.663Z,98.8586
2023-04-16T05:10:22.693Z,98.7961
2023-04-16T05:11:23.716Z,98.7366
2023-04-16T05:12:24.775Z,98.8197
2023-04-16T05:13:25.811Z,98.8224
2023-04-16T05:14:26.852Z,98.8776
2023-04-16T05:15:27.896Z,98.7553
2023-04-16T05:16:28.978Z,98.6681
2023-04-16T05:17:30.038Z,98.6766
2023-04-16T05:18:30.972Z,98.7916
2023-04-16T05:19:32.070Z,98.8782
2023-04-16T05:20:33.068Z,98.8401
2023-04-16T05:21:34.106Z,98.7529
2023-04-16T05:22:35.178Z,98.6939
2023-04-16T05:23:36.221Z,98.6995
2023-04-16T05:24:37.277Z,98.8192
2023-04-16T05:25:38.333Z,98.7805
2023-04-16T05:26:39.369Z,98.6732
2023-04-16T05:27:40.478Z,98.6739
2023-04-16T05:28:41.459Z,98.6525
2023-04-16T05:29:42.492Z,98.6479
2023-04-16T05:30:43.588Z,98.7397
2023-04-16T05:31:44.574Z,98.7193
2023-04-16T05:32:45.683Z,98.6191
2023-04-16T05:33:46.658Z,98.7028
2023-04-16T05:34:47.719Z,98.8119
2023-04-16T05:35:48.675Z,98.7941
2023-04-16T05:36:49.690Z,98.8413
2023-04-16T05:37:50.793Z,98.9124
2023-04-16T05:38:51.828Z,98.9492
2023-04-16T05:39:52.932Z,98.7995
2023-04-16T05:40:53.855Z,98.7056
2023-04-16T05:41:54.902Z,98.7928
2023-04-16T05:42:56.013Z,98.7586
2023-04-16T05:43:56.984Z,98.7376
2023-04-16T05:44:58.027Z,98.6261
2023-04-16T05:45:59.108Z,98.5566
2023-04-16T05:47:00.094Z,98.5250
2023-04-16T05:48:01.196Z,98.4673
2023-04-16T05:49:02.189Z,98.6516
2023-04-16T05:50:03.190Z,98.7539
2023-04-16T05:51:04.306Z,98.7691
2023-04-16T05:52:05.275Z,98.8033
2023-04-16T05:53:06.292Z,98.7732
2023-04-16T05:54:07.365Z,98.8052
2023-04-16T05:55:08.349Z,98.8109
2023-04-16T05:56:09.390Z,98.8201
2023-04-16T05:57:10.433Z,98.7972
2023-04-16T05:58:11.470Z,98.8564
2023-04-16T05:59:12.555Z,98.8224
2023-04-16T06:00:13.526Z,98.8150
2023-04-16T06:01:14.600Z,98.8591
2023-04-16T06:02:15.710Z,98.7351
2023-04-16T06:03:16.828Z,98.6598
2023-04-16T06:04:17.875Z,98.5559
2023-04-16T06:05:18.738Z,98.5318
2023-04-16T06:06:19.783Z,98.3978
2023-04-16T06:07:20.836Z,98.5849
2023-04-16T06:08:21.849Z,98.5808
2023-04-16T06:09:23.024Z,98.5951
2023-04-16T06:10:23.939Z,98.4919
2023-04-16T06:11:24.993Z,98.5364
2023-04-16T06:12:26.025Z,98.5330
2023-04-16T06:13:27.080Z,98.4784
2023-04-16T06:14:28.168Z,98.5387
2023-04-16T06:15:29.132Z,98.6366
2023-04-16T06:16:30.259Z,98.5914
2023-04-16T06:17:31.265Z,98.4314
2023-04-16T06:18:32.294Z,98.3564
2023-04-16T06:19:33.344Z,98.3570
2023-04-16T06:20:34.351Z,98.2412
2023-04-16T06:21:35.380Z,98.3072
2023-04-16T06:22:36.417Z,98.1368
2023-04-16T06:23:37.486Z,98.2018
2023-04-16T06:24:38.558Z,97.9900
2023-04-16T06:25:39.554Z,98.1229
2023-04-16T06:26:40.576Z,98.1366
2023-04-16T06:27:41.615Z,97.9790
2023-04-16T06:28:42.648Z,98.0022
2023-04-16T06:29:43.750Z,98.0619
2023-04-16T06:30:44.861Z,98.1723
2023-04-16T06:31:45.813Z,98.1035
2023-04-16T06:32:46.862Z,98.0572
2023-04-16T06:33:47.856Z,98.1558
2023-04-16T06:34:49.161Z,98.2459
2023-04-16T06:35:49.928Z,98.1167
2023-04-16T06:36:50.968Z,98.0836
2023-04-16T06:37:52.004Z,98.0681
2023-04-16T06:38:53.050Z,98.0343
2023-04-16T06:39:54.131Z,97.9445
2023-04-16T06:40:55.116Z,97.9103
2023-04-16T06:41:56.185Z,98.0711
2023-04-16T06:42:57.216Z,97.9714
2023-04-16T06:43:58.231Z,97.9859
2023-04-16T06:44:59.292Z,98.0892
2023-04-16T06:46:00.303Z,97.9189
2023-04-16T06:47:01.407Z,97.9722
2023-04-16T06:48:02.433Z,97.8789
2023-04-16T06:49:03.435Z,97.8927
2023-04-16T06:50:04.564Z,98.0551
2023-04-16T06:51:05.509Z,98.1533
2023-04-16T06:52:06.546Z,98.2852
2023-04-16T06:53:07.559Z,98.2915
2023-04-16T06:54:08.619Z,98.2283
2023-04-16T06:55:09.704Z,98.2640
2023-04-16T06:56:10.709Z,98.2748
2023-04-16T06:57:11.714Z,98.3158
2023-04-16T06:58:12.780Z,98.3363
2023-04-16T06:59:13.755Z,98.2284
2023-04-16T07:00:14.855Z,98.3271
2023-04-16T07:01:15.905Z,98.1344
2023-04-16T07:02:17.022Z,98.1054
2023-04-16T07:03:18.017Z,98.2632
2023-04-16T07:04:19.013Z,98.3584
2023-04-16T07:05:20.184Z,98.3638
2023-04-16T07:06:21.160Z,98.3987
2023-04-16T07:07:22.322Z,98.2872
2023-04-16T07:08:23.193Z,98.2663
2023-04-16T07:09:24.259Z,98.3445
2023-04-16T07:10:25.582Z,98.3386
2023-04-16T07:11:26.306Z,98.2854
2023-04-16T07:12:27.366Z,98.2248
2023-04-16T07:13:28.590Z,98.4301
2023-04-16T07:14:29.440Z,98.3138
2023-04-16T07:15:30.526Z,98.2350
2023-04-16T07:16:31.596Z,98.2507
2023-04-16T07:17:32.594Z,98.3433
2023-04-16T07:18:33.586Z,98.3320
2023-04-16T07:19:34.603Z,98.3392
2023-04-16T07:20:35.671Z,98.3374
2023-04-16T07:21:36.745Z,98.2075
2023-04-16T07:22:37.729Z,98.1945
2023-04-16T07:23:38.745Z,98.3248
2023-04-16T07:24:39.788Z,98.2781
2023-04-16T07:25:41.160Z,98.1741
2023-04-16T07:26:41.876Z,98.1267
2023-04-16T07:27:42.923Z,97.9423
2023-04-16T07:28:43.955Z,97.7868
2023-04-16T07:29:44.984Z,97.9931
2023-04-16T07:30:46.048Z,98.0697
2023-04-16T07:31:47.151Z,98.1325
2023-04-16T07:32:48.162Z,97.9853
2023-04-16T07:33:49.148Z,98.0834
2023-04-16T07:34:50.235Z,97.9643
2023-04-16T07:35:51.240Z,97.9065
2023-04-16T07:36:52.309Z,98.0558
2023-04-16T07:37:53.310Z,98.0382
2023-04-16T07:38:54.386Z,98.0710
2023-04-16T07:39:57.375Z,97.8920
2023-04-16T07:40:56.411Z,97.8757
2023-04-16T07:41:57.524Z,97.7681
2023-04-16T07:42:58.494Z,97.7737
2023-04-16T07:43:59.558Z,97.8582
2023-04-16T07:45:00.585Z,98.0217
2023-04-16T07:46:01.655Z,97.8320
2023-04-16T07:47:05.246Z,98.0046
2023-04-16T07:48:03.718Z,97.8642
2023-04-16T07:49:04.751Z,97.6670
2023-04-16T07:50:05.767Z,97.7572
2023-04-16T07:51:06.812Z,97.8619
2023-04-16T07:52:07.866Z,97.5537
2023-04-16T07:53:08.869Z,97.6448
2023-04-16T07:54:09.882Z,97.6702
2023-04-16T07:55:10.909Z,97.7090
2023-04-16T07:56:11.940Z,97.4762
2023-04-16T07:57:13.053Z,97.4328
2023-04-16T07:58:14.027Z,97.5276
2023-04-16T07:59:22.728Z,97.5097
2023-04-16T08:00:16.122Z,97.8447
2023-04-16T08:01:17.145Z,97.3892
2023-04-16T08:02:18.284Z,97.5421
2023-04-16T08:03:19.428Z,97.9315
2023-04-16T08:04:20.434Z,98.0230
2023-04-16T08:05:21.372Z,97.9633
2023-04-16T08:06:22.316Z,97.9855
2023-04-16T08:07:23.419Z,98.0785
2023-04-16T08:08:24.398Z,97.8277
2023-04-16T08:09:25.449Z,97.7788
2023-04-16T08:10:26.480Z,97.9468
2023-04-16T08:11:27.544Z,97.9683
2023-04-16T08:12:28.650Z,97.8177
2023-04-16T08:13:30.851Z,97.8215
2023-04-16T08:14:30.678Z,97.9249
2023-04-16T08:15:31.736Z,97.9360
2023-04-16T08:16:32.719Z,97.7745
2023-04-16T08:17:33.825Z,97.6641
2023-04-16T08:18:34.847Z,97.7171
2023-04-16T08:19:35.856Z,97.6191
2023-04-16T08:20:36.903Z,97.6715
2023-04-16T08:21:37.900Z,97.6864
2023-04-16T08:22:38.948Z,97.4677
2023-04-16T08:23:40.026Z,97.6386
2023-04-16T08:24:41.036Z,97.7950
2023-04-16T08:25:42.100Z,97.7635
2023-04-16T08:26:43.096Z,97.7792
2023-04-16T08:27:44.149Z,97.8928
2023-04-16T08:28:45.211Z,97.6273
2023-04-16T08:29:46.199Z,97.6901
2023-04-16T08:30:47.236Z,97.4994
2023-04-16T08:31:48.328Z,97.5661
2023-04-16T08:32:50.233Z,97.4973
2023-04-16T08:33:50.409Z,97.4103
2023-04-16T08:34:51.442Z,97.5574
2023-04-16T08:35:52.471Z,97.6541
2023-04-16T08:36:53.503Z,97.5722
2023-04-16T08:37:54.562Z,97.4735
2023-04-16T08:38:55.603Z,97.4306
2023-04-16T08:39:56.583Z,97.4597
2023-04-16T08:40:57.620Z,97.4105
2023-04-16T08:41:58.701Z,97.3858
2023-04-16T08:42:59.694Z,97.3706
2023-04-16T08:44:00.970Z,97.5955
2023-04-16T08:45:01.806Z,97.3774
2023-04-16T08:46:02.830Z,97.3112
2023-04-16T08:47:03.973Z,97.0251
2023-04-16T08:48:05.006Z,96.7994
2023-04-16T08:49:06.000Z,96.9185
2023-04-16T08:50:07.005Z,96.7775
2023-04-16T08:51:08.058Z,96.6427
2023-04-16T08:52:09.095Z,96.7360
2023-04-16T08:53:10.108Z,96.6460
2023-04-16T08:54:11.193Z,96.7766
2023-04-16T08:55:12.192Z,96.8976
2023-04-16T08:56:13.255Z,96.8217
2023-04-16T08:57:14.248Z,96.9289
2023-04-16T08:58:15.400Z,97.0381
2023-04-16T08:59:16.383Z,96.6931
2023-04-16T09:00:17.381Z,96.7501
2023-04-16T09:01:18.539Z,96.7718
2023-04-16T09:02:19.521Z,96.7917
2023-04-16T09:03:20.687Z,96.7205
2023-04-16T09:04:21.672Z,96.6812
2023-04-16T09:05:22.622Z,96.8568
2023-04-16T09:06:23.638Z,96.7337
2023-04-16T09:07:24.696Z,96.7775
2023-04-16T09:08:25.907Z,96.8361
2023-04-16T09:09:27.197Z,96.6157
2023-04-16T09:10:27.796Z,96.9505
2023-04-16T09:11:28.810Z,96.8754
2023-04-16T09:12:29.853Z,96.6384
2023-04-16T09:13:30.895Z,96.6350
2023-04-16T09:14:31.955Z,96.5889
2023-04-16T09:15:35.038Z,96.4294
2023-04-16T09:16:34.028Z,96.4993
2023-04-16T09:17:35.097Z,96.3597
2023-04-16T09:18:36.056Z,96.0768
2023-04-16T09:19:37.233Z,96.3933
2023-04-16T09:20:38.113Z,96.5146
2023-04-16T09:21:39.182Z,96.2254
2023-04-16T09:22:40.224Z,96.5206
2023-04-16T09:23:41.235Z,96.6229
2023-04-16T09:24:42.314Z,96.7994
2023-04-16T09:25:43.301Z,96.4356
2023-04-16T09:26:44.504Z,96.6950
2023-04-16T09:27:45.407Z,96.9942
2023-04-16T09:28:46.436Z,96.7313
2023-04-16T09:29:47.500Z,96.7634
2023-04-16T09:30:48.497Z,96.7838
2023-04-16T09:31:49.613Z,96.8354
2023-04-16T09:32:50.645Z,97.0605
2023-04-16T09:33:51.616Z,97.1036
2023-04-16T09:34:52.658Z,96.8989
2023-04-16T09:35:53.776Z,96.7340
2023-04-16T09:36:54.700Z,96.8926
2023-04-16T09:37:55.719Z,96.9421
2023-04-16T09:38:57.786Z,96.6855
2023-04-16T09:39:57.860Z,96.5256
2023-04-16T09:40:58.901Z,96.4849
2023-04-16T09:41:59.979Z,96.3721
2023-04-16T09:43:00.969Z,96.5931
2023-04-16T09:44:02.030Z,96.3367
2023-04-16T09:45:05.457Z,96.4673
2023-04-16T09:46:07.865Z,96.3948
2023-04-16T09:47:05.102Z,96.7174
2023-04-16T09:48:06.194Z,96.6409
2023-04-16T09:49:07.390Z,96.4258
2023-04-16T09:50:08.233Z,96.3679
2023-04-16T09:51:09.254Z,96.6222
2023-04-16T09:52:10.269Z,96.5677
2023-04-16T09:53:11.313Z,96.7873
2023-04-16T09:54:12.376Z,96.9690
2023-04-16T09:55:13.444Z,97.1365
2023-04-16T09:56:14.496Z,97.3143
2023-04-16T09:57:15.468Z,97.1661
2023-04-16T09:58:16.530Z,96.9186
2023-04-16T09:59:17.543Z,96.8176
2023-04-16T10:00:18.779Z,96.8463
2023-04-16T10:01:19.692Z,96.8287
2023-04-16T10:02:20.718Z,96.9974
2023-04-16T10:03:21.810Z,96.8477
2023-04-16T10:04:22.780Z,97.1456
2023-04-16T10:05:23.779Z,96.9646
2023-04-16T10:06:24.837Z,96.8727
2023-04-16T10:07:25.855Z,97.0891
2023-04-16T10:08:26.913Z,97.1700
2023-04-16T10:09:27.914Z,97.0311
2023-04-16T10:10:28.991Z,96.9091
2023-04-16T10:11:30.062Z,97.0118
2023-04-16T10:12:31.014Z,96.8537
2023-04-16T10:13:32.081Z,96.8419
2023-04-16T10:14:33.195Z,96.8669
2023-04-16T10:15:34.212Z,96.8468
2023-04-16T10:16:35.226Z,96.8375
2023-04-16T10:17:36.231Z,97.0115
2023-04-16T10:18:37.249Z,96.9184
2023-04-16T10:19:38.314Z,96.7326
2023-04-16T10:20:39.392Z,96.5133
2023-04-16T10:21:40.398Z,96.5221
2023-04-16T10:22:41.400Z,96.3466
2023-04-16T10:23:42.440Z,96.3073
2023-04-16T10:24:43.478Z,96.4606
2023-04-16T10:25:44.520Z,96.3813
2023-04-16T10:26:45.621Z,96.4932
2023-04-16T10:27:46.644Z,96.4077
2023-04-16T10:28:47.644Z,96.2175
2023-04-16T10:29:48.681Z,96.2310
2023-04-16T10:30:49.756Z,96.1260
2023-04-16T10:31:50.819Z,96.1888
2023-04-16T10:32:51.855Z,96.3712
2023-04-16T10:33:52.876Z,96.2151
2023-04-16T10:34:53.910Z,95.9129
2023-04-16T10:36:04.892Z,95.6741
2023-04-16T10:36:56.080Z,95.8956
2023-04-16T10:37:56.985Z,95.8829
2023-04-16T10:38:58.031Z,95.9822
2023-04-16T10:39:59.070Z,95.7357
2023-04-16T10:41:00.103Z,95.6678
2023-04-16T10:42:01.171Z,95.8068
2023-04-16T10:43:02.184Z,95.7135
2023-04-16T10:44:03.217Z,95.3765
2023-04-16T10:45:04.269Z,95.1830
2023-04-16T10:46:05.304Z,95.3958
2023-04-16T10:47:06.424Z,95.4053
2023-04-16T10:48:08.018Z,95.3226
2023-04-16T10:49:08.670Z,94.8480
2023-04-16T10:50:09.430Z,95.2085
2023-04-16T10:51:10.449Z,95.2213
2023-04-16T10:52:11.509Z,95.3773
2023-04-16T10:53:12.534Z,95.3600
2023-04-16T10:54:13.563Z,95.6608
2023-04-16T10:55:14.604Z,95.2660
2023-04-16T10:56:15.645Z,94.9050
2023-04-16T10:57:16.718Z,95.1699
2023-04-16T10:58:17.707Z,95.4117
2023-04-16T10:59:18.758Z,95.5582
2023-04-16T11:00:20.024Z,95.6328
2023-04-16T11:01:20.885Z,95.0247
2023-04-16T11:02:22.026Z,95.0722
2023-04-16T11:03:23.045Z,94.8734
2023-04-16T11:04:24.010Z,95.4063
2023-04-16T11:05:24.986Z,95.4272
2023-04-16T11:06:26.134Z,94.6794
2023-04-16T11:07:27.147Z,95.1851
2023-04-16T11:08:28.188Z,94.9965
2023-04-16T11:09:29.208Z,94.8698
2023-04-16T11:10:30.246Z,95.3775
2023-04-16T11:11:31.289Z,95.6251
2023-04-16T11:12:32.380Z,95.3574
2023-04-16T11:13:33.378Z,95.5364
2023-04-16T11:14:34.428Z,95.0682
2023-04-16T11:15:35.474Z,94.8120
2023-04-16T11:16:36.495Z,94.9129
2023-04-16T11:17:37.613Z,94.6973
2023-04-16T11:18:38.566Z,95.4223
2023-04-16T11:19:39.584Z,95.3601
2023-04-16T11:20:40.657Z,94.8720
2023-04-16T11:21:41.651Z,94.8306
2023-04-16T11:22:42.749Z,94.5103
2023-04-16T11:23:43.808Z,94.5940
2023-04-16T11:24:44.852Z,94.3709
2023-04-16T11:25:45.811Z,94.9021
2023-04-16T11:26:46.844Z,95.3152
2023-04-16T11:27:48.046Z,94.8909
2023-04-16T11:28:48.941Z,94.6721
2023-04-16T11:29:49.956Z,95.3769
2023-04-16T11:30:50.993Z,95.4867
2023-04-16T11:31:52.154Z,95.7992
2023-04-16T11:32:53.286Z,95.9851
2023-04-16T11:33:54.124Z,95.8684
2023-04-16T11:34:55.185Z,95.1784
2023-04-16T11:35:56.226Z,95.2049
2023-04-16T11:36:57.258Z,95.2247
2023-04-16T11:37:58.285Z,95.2705
2023-04-16T11:38:59.412Z,95.2436
2023-04-16T11:40:00.442Z,95.2870
2023-04-16T11:41:01.473Z,95.0067
2023-04-16T11:42:02.570Z,94.8608
2023-04-16T11:43:03.609Z,95.2135
2023-04-16T11:44:04.649Z,95.6296
2023-04-16T11:45:05.660Z,95.7796
2023-04-16T11:46:16.588Z,95.7738
2023-04-16T11:47:07.868Z,96.0320
2023-04-16T11:48:11.093Z,96.0476
2023-04-16T11:49:10.136Z,96.0142
2023-04-16T11:50:10.887Z,96.1113
2023-04-16T11:51:11.891Z,95.9520
2023-04-16T11:52:12.953Z,95.8213
2023-04-16T11:53:14.003Z,95.8559
2023-04-16T11:54:15.003Z,96.0229
2023-04-16T11:55:16.033Z,96.2860
2023-04-16T11:56:17.103Z,96.2476
2023-04-16T11:57:18.131Z,96.1791
2023-04-16T11:58:19.265Z,96.0195
2023-04-16T11:59:20.239Z,96.1099
2023-04-16T12:00:23.718Z,96.0325
2023-04-16T12:01:22.315Z,96.0150
2023-04-16T12:02:23.433Z,95.8430
2023-04-16T12:03:24.613Z,95.9626
2023-04-16T12:04:25.546Z,95.9454
2023-04-16T12:05:26.483Z,95.7093
2023-04-16T12:06:27.570Z,95.7833
2023-04-16T12:07:28.555Z,95.6347
2023-04-16T12:08:29.636Z,95.5642
2023-04-16T12:09:30.620Z,95.5806
2023-04-16T12:10:31.708Z,95.6995
2023-04-16T12:11:32.667Z,95.3573
2023-04-16T12:12:33.727Z,95.2799
2023-04-16T12:13:34.824Z,95.0453
2023-04-16T12:14:35.875Z,95.1287
2023-04-16T12:15:36.839Z,95.3903
2023-04-16T12:16:37.911Z,95.2618
2023-04-16T12:17:39.033Z,95.3228